sensor_id;sensor_type;location;lat;lon;timestamp;P1;durP1;ratioP1;P2;durP2;ratioP2
4555;SDS011;2290;48.674;9.018;2024-01-27T00:00:18;2.90;;;1.90;;
4555;SDS011;2290;48.674;9.018;2024-01-27T00:02:45;2.73;;;1.80;;
4555;SDS011;2290;48.674;9.018;2024-01-27T00:05:10;3.20;;;2.00;;
4555;SDS011;2290;48.674;9.018;2024-01-27T00:07:36;3.87;;;2.03;;
4555;SDS011;2290;48.674;9.018;2024-01-27T00:10:03;2.37;;;2.00;;
4555;SDS011;2290;48.674;9.018;2024-01-27T00:12:29;2.57;;;1.90;;
4555;SDS011;2290;48.674;9.018;2024-01-27T00:14:56;2.73;;;2.00;;
4555;SDS011;2290;48.674;9.018;2024-01-27T00:17:23;3.07;;;2.30;;
4555;SDS011;2290;48.674;9.018;2024-01-27T00:19:50;2.50;;;2.00;;
4555;SDS011;2290;48.674;9.018;2024-01-27T00:22:16;2.00;;;1.90;;
4555;SDS011;2290;48.674;9.018;2024-01-27T00:24:44;2.30;;;1.90;;
4555;SDS011;2290;48.674;9.018;2024-01-27T00:27:09;3.40;;;1.80;;
4555;SDS011;2290;48.674;9.018;2024-01-27T00:29:37;4.33;;;2.00;;
4555;SDS011;2290;48.674;9.018;2024-01-27T00:32:03;2.20;;;1.90;;
4555;SDS011;2290;48.674;9.018;2024-01-27T00:34:29;3.40;;;2.37;;
4555;SDS011;2290;48.674;9.018;2024-01-27T00:36:55;5.20;;;2.40;;
4555;SDS011;2290;48.674;9.018;2024-01-27T00:39:22;2.93;;;2.10;;
4555;SDS011;2290;48.674;9.018;2024-01-27T00:41:49;4.77;;;2.10;;
4555;SDS011;2290;48.674;9.018;2024-01-27T00:44:16;4.00;;;2.80;;
4555;SDS011;2290;48.674;9.018;2024-01-27T00:46:42;3.17;;;1.97;;
4555;SDS011;2290;48.674;9.018;2024-01-27T00:49:07;2.20;;;2.00;;
4555;SDS011;2290;48.674;9.018;2024-01-27T00:51:33;3.30;;;2.10;;
4555;SDS011;2290;48.674;9.018;2024-01-27T00:53:59;5.27;;;2.47;;
4555;SDS011;2290;48.674;9.018;2024-01-27T00:56:26;2.60;;;1.90;;
4555;SDS011;2290;48.674;9.018;2024-01-27T00:58:51;2.53;;;1.80;;
4555;SDS011;2290;48.674;9.018;2024-01-27T01:01:17;2.97;;;2.07;;
4555;SDS011;2290;48.674;9.018;2024-01-27T01:03:42;5.33;;;2.03;;
4555;SDS011;2290;48.674;9.018;2024-01-27T01:06:08;1.90;;;1.70;;
4555;SDS011;2290;48.674;9.018;2024-01-27T01:08:34;2.27;;;1.50;;
4555;SDS011;2290;48.674;9.018;2024-01-27T01:11:00;3.67;;;1.80;;
4555;SDS011;2290;48.674;9.018;2024-01-27T01:13:25;2.63;;;1.60;;
4555;SDS011;2290;48.674;9.018;2024-01-27T01:15:52;3.50;;;2.13;;
4555;SDS011;2290;48.674;9.018;2024-01-27T01:18:18;2.53;;;1.50;;
4555;SDS011;2290;48.674;9.018;2024-01-27T01:20:45;3.87;;;1.93;;
4555;SDS011;2290;48.674;9.018;2024-01-27T01:23:11;2.90;;;1.87;;
4555;SDS011;2290;48.674;9.018;2024-01-27T01:25:36;2.50;;;2.00;;
4555;SDS011;2290;48.674;9.018;2024-01-27T01:28:02;2.20;;;1.40;;
4555;SDS011;2290;48.674;9.018;2024-01-27T01:30:28;3.10;;;2.20;;
4555;SDS011;2290;48.674;9.018;2024-01-27T01:32:55;2.10;;;1.90;;
4555;SDS011;2290;48.674;9.018;2024-01-27T01:35:21;2.33;;;2.10;;
4555;SDS011;2290;48.674;9.018;2024-01-27T01:37:48;2.23;;;1.80;;
4555;SDS011;2290;48.674;9.018;2024-01-27T01:40:16;3.50;;;1.80;;
4555;SDS011;2290;48.674;9.018;2024-01-27T01:42:42;2.93;;;1.80;;
4555;SDS011;2290;48.674;9.018;2024-01-27T01:45:09;1.70;;;1.60;;
4555;SDS011;2290;48.674;9.018;2024-01-27T01:47:38;3.83;;;2.10;;
4555;SDS011;2290;48.674;9.018;2024-01-27T01:50:05;3.83;;;1.73;;
4555;SDS011;2290;48.674;9.018;2024-01-27T01:52:33;2.33;;;1.83;;
4555;SDS011;2290;48.674;9.018;2024-01-27T01:54:58;2.03;;;1.80;;
4555;SDS011;2290;48.674;9.018;2024-01-27T01:57:24;3.07;;;1.90;;
4555;SDS011;2290;48.674;9.018;2024-01-27T01:59:51;3.40;;;2.00;;
4555;SDS011;2290;48.674;9.018;2024-01-27T02:02:18;4.23;;;2.53;;
4555;SDS011;2290;48.674;9.018;2024-01-27T02:04:44;5.90;;;1.90;;
4555;SDS011;2290;48.674;9.018;2024-01-27T02:07:13;1.97;;;1.83;;
4555;SDS011;2290;48.674;9.018;2024-01-27T02:09:39;3.30;;;1.80;;
4555;SDS011;2290;48.674;9.018;2024-01-27T02:12:07;3.07;;;1.90;;
4555;SDS011;2290;48.674;9.018;2024-01-27T02:14:32;2.30;;;2.07;;
4555;SDS011;2290;48.674;9.018;2024-01-27T02:16:59;4.30;;;2.13;;
4555;SDS011;2290;48.674;9.018;2024-01-27T02:19:26;2.13;;;1.70;;
4555;SDS011;2290;48.674;9.018;2024-01-27T02:21:52;2.50;;;1.87;;
4555;SDS011;2290;48.674;9.018;2024-01-27T02:24:18;5.97;;;2.30;;
4555;SDS011;2290;48.674;9.018;2024-01-27T02:26:44;3.40;;;2.20;;
4555;SDS011;2290;48.674;9.018;2024-01-27T02:29:09;3.00;;;2.30;;
4555;SDS011;2290;48.674;9.018;2024-01-27T02:31:35;2.13;;;1.90;;
4555;SDS011;2290;48.674;9.018;2024-01-27T02:34:02;4.03;;;2.13;;
4555;SDS011;2290;48.674;9.018;2024-01-27T02:36:29;4.07;;;2.10;;
4555;SDS011;2290;48.674;9.018;2024-01-27T02:38:55;4.80;;;2.50;;
4555;SDS011;2290;48.674;9.018;2024-01-27T02:41:21;2.30;;;2.10;;
4555;SDS011;2290;48.674;9.018;2024-01-27T02:43:46;2.60;;;1.77;;
4555;SDS011;2290;48.674;9.018;2024-01-27T02:46:12;3.30;;;2.03;;
4555;SDS011;2290;48.674;9.018;2024-01-27T02:48:40;3.60;;;2.07;;
4555;SDS011;2290;48.674;9.018;2024-01-27T02:51:07;5.60;;;2.73;;
4555;SDS011;2290;48.674;9.018;2024-01-27T02:53:33;4.00;;;1.80;;
4555;SDS011;2290;48.674;9.018;2024-01-27T02:55:58;5.93;;;2.10;;
4555;SDS011;2290;48.674;9.018;2024-01-27T02:58:24;3.97;;;2.23;;
4555;SDS011;2290;48.674;9.018;2024-01-27T03:00:51;3.17;;;2.27;;
4555;SDS011;2290;48.674;9.018;2024-01-27T03:03:16;3.77;;;2.17;;
4555;SDS011;2290;48.674;9.018;2024-01-27T03:05:44;2.70;;;1.97;;
4555;SDS011;2290;48.674;9.018;2024-01-27T03:08:10;4.53;;;2.27;;
4555;SDS011;2290;48.674;9.018;2024-01-27T03:10:37;2.03;;;1.83;;
4555;SDS011;2290;48.674;9.018;2024-01-27T03:13:03;3.80;;;2.10;;
4555;SDS011;2290;48.674;9.018;2024-01-27T03:15:28;3.43;;;2.00;;
4555;SDS011;2290;48.674;9.018;2024-01-27T03:17:54;3.20;;;2.40;;
4555;SDS011;2290;48.674;9.018;2024-01-27T03:20:19;4.20;;;2.10;;
4555;SDS011;2290;48.674;9.018;2024-01-27T03:22:47;5.33;;;1.97;;
4555;SDS011;2290;48.674;9.018;2024-01-27T03:25:13;2.73;;;2.03;;
4555;SDS011;2290;48.674;9.018;2024-01-27T03:27:38;3.80;;;2.33;;
4555;SDS011;2290;48.674;9.018;2024-01-27T03:30:04;6.17;;;2.40;;
4555;SDS011;2290;48.674;9.018;2024-01-27T03:32:32;6.13;;;1.90;;
4555;SDS011;2290;48.674;9.018;2024-01-27T03:35:02;2.30;;;2.10;;
4555;SDS011;2290;48.674;9.018;2024-01-27T03:37:29;6.07;;;1.90;;
4555;SDS011;2290;48.674;9.018;2024-01-27T03:39:55;3.17;;;2.07;;
4555;SDS011;2290;48.674;9.018;2024-01-27T03:42:21;3.50;;;1.97;;
4555;SDS011;2290;48.674;9.018;2024-01-27T03:44:50;2.50;;;2.00;;
4555;SDS011;2290;48.674;9.018;2024-01-27T03:47:16;2.33;;;2.00;;
4555;SDS011;2290;48.674;9.018;2024-01-27T03:49:43;2.90;;;1.93;;
4555;SDS011;2290;48.674;9.018;2024-01-27T03:52:08;2.60;;;1.90;;
4555;SDS011;2290;48.674;9.018;2024-01-27T03:54:37;3.90;;;2.30;;
4555;SDS011;2290;48.674;9.018;2024-01-27T03:57:04;2.90;;;1.90;;
4555;SDS011;2290;48.674;9.018;2024-01-27T03:59:30;2.20;;;1.70;;
4555;SDS011;2290;48.674;9.018;2024-01-27T04:01:56;4.80;;;2.40;;
4555;SDS011;2290;48.674;9.018;2024-01-27T04:04:22;3.60;;;2.20;;
4555;SDS011;2290;48.674;9.018;2024-01-27T04:06:49;3.20;;;1.80;;
4555;SDS011;2290;48.674;9.018;2024-01-27T04:09:16;3.00;;;1.70;;
4555;SDS011;2290;48.674;9.018;2024-01-27T04:11:41;2.00;;;1.80;;
4555;SDS011;2290;48.674;9.018;2024-01-27T04:14:07;2.70;;;1.57;;
4555;SDS011;2290;48.674;9.018;2024-01-27T04:16:35;3.40;;;1.80;;
4555;SDS011;2290;48.674;9.018;2024-01-27T04:19:00;2.80;;;2.17;;
4555;SDS011;2290;48.674;9.018;2024-01-27T04:21:27;2.80;;;2.03;;
4555;SDS011;2290;48.674;9.018;2024-01-27T04:23:52;1.90;;;1.70;;
4555;SDS011;2290;48.674;9.018;2024-01-27T04:26:18;2.20;;;1.50;;
4555;SDS011;2290;48.674;9.018;2024-01-27T04:28:43;3.00;;;1.70;;
4555;SDS011;2290;48.674;9.018;2024-01-27T04:31:11;3.20;;;1.93;;
4555;SDS011;2290;48.674;9.018;2024-01-27T04:33:36;3.43;;;2.00;;
4555;SDS011;2290;48.674;9.018;2024-01-27T04:36:02;2.07;;;1.70;;
4555;SDS011;2290;48.674;9.018;2024-01-27T04:38:28;2.30;;;1.60;;
4555;SDS011;2290;48.674;9.018;2024-01-27T04:46:04;2.33;;;1.40;;
4555;SDS011;2290;48.674;9.018;2024-01-27T04:48:30;4.03;;;2.03;;
4555;SDS011;2290;48.674;9.018;2024-01-27T04:50:55;2.10;;;1.87;;
4555;SDS011;2290;48.674;9.018;2024-01-27T04:53:21;3.93;;;1.87;;
4555;SDS011;2290;48.674;9.018;2024-01-27T04:55:47;2.73;;;1.60;;
4555;SDS011;2290;48.674;9.018;2024-01-27T04:58:12;4.80;;;2.53;;
4555;SDS011;2290;48.674;9.018;2024-01-27T05:00:38;1.70;;;1.60;;
4555;SDS011;2290;48.674;9.018;2024-01-27T05:21:12;2.70;;;1.77;;
4555;SDS011;2290;48.674;9.018;2024-01-27T05:23:38;2.10;;;1.70;;
4555;SDS011;2290;48.674;9.018;2024-01-27T05:26:05;4.70;;;2.17;;
4555;SDS011;2290;48.674;9.018;2024-01-27T05:28:31;2.33;;;1.87;;
4555;SDS011;2290;48.674;9.018;2024-01-27T05:30:57;4.10;;;1.87;;
4555;SDS011;2290;48.674;9.018;2024-01-27T05:33:22;3.77;;;1.70;;
4555;SDS011;2290;48.674;9.018;2024-01-27T05:35:48;1.97;;;1.60;;
4555;SDS011;2290;48.674;9.018;2024-01-27T05:38:14;3.40;;;1.70;;
4555;SDS011;2290;48.674;9.018;2024-01-27T05:40:41;4.63;;;2.00;;
4555;SDS011;2290;48.674;9.018;2024-01-27T05:43:07;2.83;;;1.63;;
4555;SDS011;2290;48.674;9.018;2024-01-27T05:45:34;3.87;;;2.10;;
4555;SDS011;2290;48.674;9.018;2024-01-27T05:48:01;2.20;;;2.00;;
4555;SDS011;2290;48.674;9.018;2024-01-27T05:50:27;2.80;;;2.00;;
4555;SDS011;2290;48.674;9.018;2024-01-27T05:52:53;3.27;;;1.87;;
4555;SDS011;2290;48.674;9.018;2024-01-27T05:55:19;2.50;;;1.83;;
4555;SDS011;2290;48.674;9.018;2024-01-27T05:57:44;3.63;;;2.10;;
4555;SDS011;2290;48.674;9.018;2024-01-27T06:00:11;4.40;;;1.93;;
4555;SDS011;2290;48.674;9.018;2024-01-27T06:02:38;2.47;;;1.73;;
4555;SDS011;2290;48.674;9.018;2024-01-27T06:05:05;5.30;;;1.90;;
4555;SDS011;2290;48.674;9.018;2024-01-27T06:07:34;3.53;;;1.80;;
4555;SDS011;2290;48.674;9.018;2024-01-27T06:09:59;2.80;;;2.10;;
4555;SDS011;2290;48.674;9.018;2024-01-27T06:12:25;6.00;;;1.80;;
4555;SDS011;2290;48.674;9.018;2024-01-27T06:14:50;2.80;;;2.10;;
4555;SDS011;2290;48.674;9.018;2024-01-27T06:17:16;2.30;;;1.60;;
4555;SDS011;2290;48.674;9.018;2024-01-27T06:19:42;2.90;;;2.20;;
4555;SDS011;2290;48.674;9.018;2024-01-27T06:22:08;2.20;;;1.87;;
4555;SDS011;2290;48.674;9.018;2024-01-27T06:24:33;2.00;;;1.80;;
4555;SDS011;2290;48.674;9.018;2024-01-27T06:26:59;2.87;;;2.03;;
4555;SDS011;2290;48.674;9.018;2024-01-27T06:29:25;4.13;;;1.90;;
4555;SDS011;2290;48.674;9.018;2024-01-27T06:31:51;2.00;;;1.60;;
4555;SDS011;2290;48.674;9.018;2024-01-27T06:34:17;2.70;;;1.70;;
4555;SDS011;2290;48.674;9.018;2024-01-27T06:36:43;3.93;;;2.33;;
4555;SDS011;2290;48.674;9.018;2024-01-27T06:39:09;2.47;;;1.87;;
4555;SDS011;2290;48.674;9.018;2024-01-27T06:41:35;3.20;;;2.40;;
4555;SDS011;2290;48.674;9.018;2024-01-27T06:44:01;3.67;;;1.73;;
4555;SDS011;2290;48.674;9.018;2024-01-27T06:46:28;2.37;;;1.80;;
4555;SDS011;2290;48.674;9.018;2024-01-27T06:48:54;3.37;;;1.63;;
4555;SDS011;2290;48.674;9.018;2024-01-27T06:51:19;2.50;;;1.70;;
4555;SDS011;2290;48.674;9.018;2024-01-27T06:53:45;1.57;;;1.47;;
4555;SDS011;2290;48.674;9.018;2024-01-27T06:56:13;2.03;;;1.80;;
4555;SDS011;2290;48.674;9.018;2024-01-27T06:58:38;4.70;;;2.10;;
4555;SDS011;2290;48.674;9.018;2024-01-27T07:01:04;1.90;;;1.60;;
4555;SDS011;2290;48.674;9.018;2024-01-27T07:03:32;4.10;;;1.80;;
4555;SDS011;2290;48.674;9.018;2024-01-27T07:05:57;3.30;;;1.83;;
4555;SDS011;2290;48.674;9.018;2024-01-27T07:08:26;3.83;;;1.70;;
4555;SDS011;2290;48.674;9.018;2024-01-27T07:10:53;3.73;;;1.90;;
4555;SDS011;2290;48.674;9.018;2024-01-27T07:13:18;3.57;;;2.53;;
4555;SDS011;2290;48.674;9.018;2024-01-27T07:15:44;5.23;;;2.13;;
4555;SDS011;2290;48.674;9.018;2024-01-27T07:18:10;3.57;;;2.03;;
4555;SDS011;2290;48.674;9.018;2024-01-27T07:20:35;3.60;;;2.10;;
4555;SDS011;2290;48.674;9.018;2024-01-27T07:23:01;4.53;;;2.03;;
4555;SDS011;2290;48.674;9.018;2024-01-27T07:25:26;3.40;;;2.23;;
4555;SDS011;2290;48.674;9.018;2024-01-27T07:27:53;4.07;;;2.40;;
4555;SDS011;2290;48.674;9.018;2024-01-27T07:30:19;2.80;;;1.70;;
4555;SDS011;2290;48.674;9.018;2024-01-27T07:32:44;7.80;;;2.70;;
4555;SDS011;2290;48.674;9.018;2024-01-27T07:35:12;5.07;;;2.30;;
4555;SDS011;2290;48.674;9.018;2024-01-27T07:37:38;3.40;;;2.00;;
4555;SDS011;2290;48.674;9.018;2024-01-27T07:40:03;3.63;;;2.13;;
4555;SDS011;2290;48.674;9.018;2024-01-27T07:42:30;2.47;;;2.20;;
4555;SDS011;2290;48.674;9.018;2024-01-27T07:44:56;5.70;;;2.00;;
4555;SDS011;2290;48.674;9.018;2024-01-27T07:47:22;2.73;;;2.10;;
4555;SDS011;2290;48.674;9.018;2024-01-27T07:49:47;2.00;;;1.80;;
4555;SDS011;2290;48.674;9.018;2024-01-27T07:52:14;6.07;;;1.70;;
4555;SDS011;2290;48.674;9.018;2024-01-27T07:54:39;3.67;;;1.80;;
4555;SDS011;2290;48.674;9.018;2024-01-27T07:57:05;4.03;;;1.87;;
4555;SDS011;2290;48.674;9.018;2024-01-27T07:59:31;3.93;;;1.90;;
4555;SDS011;2290;48.674;9.018;2024-01-27T08:01:58;2.17;;;1.97;;
4555;SDS011;2290;48.674;9.018;2024-01-27T08:04:24;5.53;;;2.37;;
4555;SDS011;2290;48.674;9.018;2024-01-27T08:06:50;6.77;;;2.57;;
4555;SDS011;2290;48.674;9.018;2024-01-27T08:09:17;2.60;;;2.10;;
4555;SDS011;2290;48.674;9.018;2024-01-27T08:11:43;3.73;;;1.80;;
4555;SDS011;2290;48.674;9.018;2024-01-27T08:14:09;6.23;;;2.10;;
4555;SDS011;2290;48.674;9.018;2024-01-27T08:16:35;2.27;;;1.90;;
4555;SDS011;2290;48.674;9.018;2024-01-27T08:19:00;6.10;;;2.27;;
4555;SDS011;2290;48.674;9.018;2024-01-27T08:21:26;6.93;;;2.50;;
4555;SDS011;2290;48.674;9.018;2024-01-27T08:23:52;4.90;;;2.97;;
4555;SDS011;2290;48.674;9.018;2024-01-27T08:26:20;3.30;;;2.50;;
4555;SDS011;2290;48.674;9.018;2024-01-27T08:28:46;3.53;;;2.43;;
4555;SDS011;2290;48.674;9.018;2024-01-27T08:31:12;2.87;;;2.50;;
4555;SDS011;2290;48.674;9.018;2024-01-27T08:33:38;4.10;;;2.53;;
4555;SDS011;2290;48.674;9.018;2024-01-27T08:36:03;2.77;;;2.50;;
4555;SDS011;2290;48.674;9.018;2024-01-27T08:38:29;4.97;;;2.70;;
4555;SDS011;2290;48.674;9.018;2024-01-27T08:40:55;5.17;;;2.90;;
4555;SDS011;2290;48.674;9.018;2024-01-27T08:43:20;4.60;;;2.53;;
4555;SDS011;2290;48.674;9.018;2024-01-27T08:45:46;6.67;;;3.23;;
4555;SDS011;2290;48.674;9.018;2024-01-27T08:48:11;7.03;;;3.63;;
4555;SDS011;2290;48.674;9.018;2024-01-27T08:50:37;6.13;;;3.60;;
4555;SDS011;2290;48.674;9.018;2024-01-27T08:53:03;3.20;;;2.60;;
4555;SDS011;2290;48.674;9.018;2024-01-27T08:55:29;4.03;;;3.20;;
4555;SDS011;2290;48.674;9.018;2024-01-27T08:57:56;7.90;;;3.60;;
4555;SDS011;2290;48.674;9.018;2024-01-27T09:00:23;4.80;;;2.60;;
4555;SDS011;2290;48.674;9.018;2024-01-27T09:02:48;5.67;;;3.30;;
4555;SDS011;2290;48.674;9.018;2024-01-27T09:05:14;3.63;;;2.67;;
4555;SDS011;2290;48.674;9.018;2024-01-27T09:07:41;3.13;;;2.70;;
4555;SDS011;2290;48.674;9.018;2024-01-27T09:10:06;5.33;;;3.40;;
4555;SDS011;2290;48.674;9.018;2024-01-27T09:12:32;5.37;;;2.87;;
4555;SDS011;2290;48.674;9.018;2024-01-27T09:14:58;4.40;;;3.33;;
4555;SDS011;2290;48.674;9.018;2024-01-27T09:17:24;6.17;;;2.90;;
4555;SDS011;2290;48.674;9.018;2024-01-27T09:19:50;4.53;;;3.27;;
4555;SDS011;2290;48.674;9.018;2024-01-27T09:22:17;5.63;;;3.27;;
4555;SDS011;2290;48.674;9.018;2024-01-27T09:24:43;11.13;;;4.17;;
4555;SDS011;2290;48.674;9.018;2024-01-27T09:27:08;4.40;;;3.40;;
4555;SDS011;2290;48.674;9.018;2024-01-27T09:29:34;6.17;;;3.37;;
4555;SDS011;2290;48.674;9.018;2024-01-27T09:31:59;5.30;;;3.00;;
4555;SDS011;2290;48.674;9.018;2024-01-27T09:34:26;7.03;;;3.33;;
4555;SDS011;2290;48.674;9.018;2024-01-27T09:36:52;7.80;;;3.50;;
4555;SDS011;2290;48.674;9.018;2024-01-27T09:39:18;6.73;;;3.70;;
4555;SDS011;2290;48.674;9.018;2024-01-27T09:41:44;6.43;;;3.20;;
4555;SDS011;2290;48.674;9.018;2024-01-27T09:44:13;4.73;;;3.47;;
4555;SDS011;2290;48.674;9.018;2024-01-27T09:46:44;4.60;;;3.23;;
4555;SDS011;2290;48.674;9.018;2024-01-27T09:49:10;7.53;;;3.40;;
4555;SDS011;2290;48.674;9.018;2024-01-27T09:51:40;3.50;;;2.80;;
4555;SDS011;2290;48.674;9.018;2024-01-27T09:54:06;4.40;;;2.73;;
4555;SDS011;2290;48.674;9.018;2024-01-27T09:56:32;4.57;;;2.77;;
4555;SDS011;2290;48.674;9.018;2024-01-27T09:58:58;3.30;;;2.63;;
4555;SDS011;2290;48.674;9.018;2024-01-27T10:01:25;6.90;;;3.03;;
4555;SDS011;2290;48.674;9.018;2024-01-27T10:03:53;5.03;;;2.80;;
4555;SDS011;2290;48.674;9.018;2024-01-27T10:06:20;9.93;;;3.60;;
4555;SDS011;2290;48.674;9.018;2024-01-27T10:08:51;5.20;;;3.07;;
4555;SDS011;2290;48.674;9.018;2024-01-27T10:11:18;5.17;;;2.90;;
4555;SDS011;2290;48.674;9.018;2024-01-27T10:13:56;5.60;;;2.53;;
4555;SDS011;2290;48.674;9.018;2024-01-27T10:16:24;5.63;;;2.50;;
4555;SDS011;2290;48.674;9.018;2024-01-27T10:19:01;7.70;;;2.80;;
4555;SDS011;2290;48.674;9.018;2024-01-27T10:21:28;5.23;;;2.30;;
4555;SDS011;2290;48.674;9.018;2024-01-27T10:23:53;10.53;;;3.20;;
4555;SDS011;2290;48.674;9.018;2024-01-27T10:26:19;4.90;;;2.73;;
4555;SDS011;2290;48.674;9.018;2024-01-27T10:29:03;3.63;;;2.50;;
4555;SDS011;2290;48.674;9.018;2024-01-27T10:31:29;2.70;;;2.10;;
4555;SDS011;2290;48.674;9.018;2024-01-27T10:33:56;5.97;;;2.77;;
4555;SDS011;2290;48.674;9.018;2024-01-27T10:36:23;5.60;;;2.70;;
4555;SDS011;2290;48.674;9.018;2024-01-27T10:38:51;5.53;;;2.47;;
4555;SDS011;2290;48.674;9.018;2024-01-27T10:41:23;7.30;;;3.80;;
4555;SDS011;2290;48.674;9.018;2024-01-27T10:43:52;3.80;;;2.17;;
4555;SDS011;2290;48.674;9.018;2024-01-27T10:46:21;3.23;;;2.53;;
4555;SDS011;2290;48.674;9.018;2024-01-27T10:51:29;6.23;;;2.47;;
4555;SDS011;2290;48.674;9.018;2024-01-27T10:53:58;7.90;;;3.33;;
4555;SDS011;2290;48.674;9.018;2024-01-27T10:56:27;3.77;;;2.70;;
4555;SDS011;2290;48.674;9.018;2024-01-27T11:01:30;4.67;;;2.87;;
4555;SDS011;2290;48.674;9.018;2024-01-27T11:03:57;7.90;;;2.60;;
4555;SDS011;2290;48.674;9.018;2024-01-27T11:06:25;5.17;;;2.70;;
4555;SDS011;2290;48.674;9.018;2024-01-27T11:08:54;3.23;;;2.90;;
4555;SDS011;2290;48.674;9.018;2024-01-27T11:11:21;6.53;;;2.93;;
4555;SDS011;2290;48.674;9.018;2024-01-27T11:18:58;5.70;;;3.53;;
4555;SDS011;2290;48.674;9.018;2024-01-27T11:21:26;7.57;;;3.37;;
4555;SDS011;2290;48.674;9.018;2024-01-27T11:47:14;4.37;;;2.90;;
4555;SDS011;2290;48.674;9.018;2024-01-27T11:49:52;3.10;;;2.20;;
4555;SDS011;2290;48.674;9.018;2024-01-27T11:52:20;6.57;;;2.77;;
4555;SDS011;2290;48.674;9.018;2024-01-27T11:54:53;4.27;;;2.83;;
4555;SDS011;2290;48.674;9.018;2024-01-27T12:10:17;5.67;;;2.30;;
4555;SDS011;2290;48.674;9.018;2024-01-27T12:17:54;1.80;;;1.60;;
4555;SDS011;2290;48.674;9.018;2024-01-27T12:20:21;4.27;;;1.93;;
4555;SDS011;2290;48.674;9.018;2024-01-27T12:22:47;3.40;;;2.00;;
4555;SDS011;2290;48.674;9.018;2024-01-27T12:25:15;2.80;;;1.70;;
4555;SDS011;2290;48.674;9.018;2024-01-27T12:27:41;3.00;;;2.00;;
4555;SDS011;2290;48.674;9.018;2024-01-27T12:30:08;2.90;;;1.70;;
4555;SDS011;2290;48.674;9.018;2024-01-27T12:32:35;3.03;;;1.63;;
4555;SDS011;2290;48.674;9.018;2024-01-27T12:35:04;5.10;;;2.13;;
4555;SDS011;2290;48.674;9.018;2024-01-27T12:37:31;5.30;;;2.33;;
4555;SDS011;2290;48.674;9.018;2024-01-27T12:39:58;2.67;;;2.03;;
4555;SDS011;2290;48.674;9.018;2024-01-27T12:42:24;6.00;;;2.93;;
4555;SDS011;2290;48.674;9.018;2024-01-27T12:44:50;2.30;;;2.10;;
4555;SDS011;2290;48.674;9.018;2024-01-27T12:47:17;6.17;;;2.67;;
4555;SDS011;2290;48.674;9.018;2024-01-27T12:49:45;2.87;;;2.30;;
4555;SDS011;2290;48.674;9.018;2024-01-27T12:52:11;5.07;;;2.43;;
4555;SDS011;2290;48.674;9.018;2024-01-27T12:54:38;6.00;;;2.07;;
4555;SDS011;2290;48.674;9.018;2024-01-27T12:57:03;4.20;;;2.30;;
4555;SDS011;2290;48.674;9.018;2024-01-27T12:59:31;6.90;;;2.10;;
4555;SDS011;2290;48.674;9.018;2024-01-27T13:01:57;2.40;;;1.93;;
4555;SDS011;2290;48.674;9.018;2024-01-27T13:04:24;2.73;;;1.90;;
4555;SDS011;2290;48.674;9.018;2024-01-27T13:06:50;6.00;;;3.27;;
4555;SDS011;2290;48.674;9.018;2024-01-27T13:09:16;3.00;;;2.00;;
4555;SDS011;2290;48.674;9.018;2024-01-27T13:11:43;2.90;;;2.13;;
4555;SDS011;2290;48.674;9.018;2024-01-27T13:14:10;3.47;;;2.00;;
4555;SDS011;2290;48.674;9.018;2024-01-27T13:16:37;4.57;;;2.07;;
4555;SDS011;2290;48.674;9.018;2024-01-27T13:19:03;6.97;;;2.50;;
4555;SDS011;2290;48.674;9.018;2024-01-27T13:21:30;4.40;;;2.23;;
4555;SDS011;2290;48.674;9.018;2024-01-27T13:23:55;2.50;;;1.87;;
4555;SDS011;2290;48.674;9.018;2024-01-27T13:26:21;2.70;;;1.93;;
4555;SDS011;2290;48.674;9.018;2024-01-27T13:28:47;7.30;;;1.77;;
4555;SDS011;2290;48.674;9.018;2024-01-27T13:31:17;2.17;;;1.47;;
4555;SDS011;2290;48.674;9.018;2024-01-27T13:33:43;4.63;;;1.77;;
4555;SDS011;2290;48.674;9.018;2024-01-27T13:36:08;4.30;;;1.83;;
4555;SDS011;2290;48.674;9.018;2024-01-27T13:38:34;2.07;;;1.30;;
4555;SDS011;2290;48.674;9.018;2024-01-27T13:41:00;2.87;;;2.00;;
4555;SDS011;2290;48.674;9.018;2024-01-27T13:43:28;1.63;;;1.50;;
4555;SDS011;2290;48.674;9.018;2024-01-27T13:45:54;1.70;;;1.60;;
4555;SDS011;2290;48.674;9.018;2024-01-27T13:48:21;2.87;;;1.73;;
4555;SDS011;2290;48.674;9.018;2024-01-27T13:50:47;3.40;;;1.70;;
4555;SDS011;2290;48.674;9.018;2024-01-27T13:53:13;2.57;;;1.83;;
4555;SDS011;2290;48.674;9.018;2024-01-27T13:55:39;2.70;;;1.60;;
4555;SDS011;2290;48.674;9.018;2024-01-27T13:58:07;6.03;;;1.60;;
4555;SDS011;2290;48.674;9.018;2024-01-27T14:00:33;1.90;;;1.40;;
4555;SDS011;2290;48.674;9.018;2024-01-27T14:02:59;1.73;;;1.43;;
4555;SDS011;2290;48.674;9.018;2024-01-27T14:05:25;2.47;;;1.30;;
4555;SDS011;2290;48.674;9.018;2024-01-27T14:07:52;2.80;;;1.67;;
4555;SDS011;2290;48.674;9.018;2024-01-27T14:10:19;1.83;;;1.63;;
4555;SDS011;2290;48.674;9.018;2024-01-27T14:12:45;1.40;;;1.30;;
4555;SDS011;2290;48.674;9.018;2024-01-27T14:15:12;2.90;;;1.57;;
4555;SDS011;2290;48.674;9.018;2024-01-27T14:17:38;3.27;;;1.70;;
4555;SDS011;2290;48.674;9.018;2024-01-27T14:20:04;2.17;;;1.40;;
4555;SDS011;2290;48.674;9.018;2024-01-27T14:22:30;2.07;;;1.40;;
4555;SDS011;2290;48.674;9.018;2024-01-27T14:24:56;2.23;;;2.03;;
4555;SDS011;2290;48.674;9.018;2024-01-27T14:27:23;2.60;;;1.40;;
4555;SDS011;2290;48.674;9.018;2024-01-27T14:29:52;2.30;;;1.67;;
4555;SDS011;2290;48.674;9.018;2024-01-27T14:32:19;1.87;;;1.47;;
4555;SDS011;2290;48.674;9.018;2024-01-27T14:34:45;3.77;;;1.70;;
4555;SDS011;2290;48.674;9.018;2024-01-27T14:37:11;1.60;;;1.30;;
4555;SDS011;2290;48.674;9.018;2024-01-27T14:39:38;3.50;;;1.57;;
4555;SDS011;2290;48.674;9.018;2024-01-27T14:42:07;1.97;;;1.47;;
4555;SDS011;2290;48.674;9.018;2024-01-27T14:44:34;3.40;;;1.60;;
4555;SDS011;2290;48.674;9.018;2024-01-27T14:47:00;3.87;;;1.90;;
4555;SDS011;2290;48.674;9.018;2024-01-27T14:49:26;2.27;;;1.70;;
4555;SDS011;2290;48.674;9.018;2024-01-27T14:51:54;3.57;;;1.60;;
4555;SDS011;2290;48.674;9.018;2024-01-27T14:54:20;2.50;;;1.60;;
4555;SDS011;2290;48.674;9.018;2024-01-27T14:56:45;2.60;;;2.00;;
4555;SDS011;2290;48.674;9.018;2024-01-27T14:59:11;4.43;;;1.90;;
4555;SDS011;2290;48.674;9.018;2024-01-27T15:01:37;3.63;;;1.70;;
4555;SDS011;2290;48.674;9.018;2024-01-27T15:04:03;5.30;;;2.30;;
4555;SDS011;2290;48.674;9.018;2024-01-27T15:06:29;4.20;;;2.17;;
4555;SDS011;2290;48.674;9.018;2024-01-27T15:08:56;2.80;;;2.10;;
4555;SDS011;2290;48.674;9.018;2024-01-27T15:11:22;6.73;;;2.37;;
4555;SDS011;2290;48.674;9.018;2024-01-27T15:13:48;3.10;;;1.90;;
4555;SDS011;2290;48.674;9.018;2024-01-27T15:16:13;4.27;;;2.43;;
4555;SDS011;2290;48.674;9.018;2024-01-27T15:18:40;4.83;;;3.03;;
4555;SDS011;2290;48.674;9.018;2024-01-27T15:21:09;7.23;;;2.23;;
4555;SDS011;2290;48.674;9.018;2024-01-27T15:23:37;2.93;;;2.00;;
4555;SDS011;2290;48.674;9.018;2024-01-27T15:26:03;3.43;;;2.53;;
4555;SDS011;2290;48.674;9.018;2024-01-27T15:28:31;2.17;;;1.97;;
4555;SDS011;2290;48.674;9.018;2024-01-27T15:30:57;2.50;;;1.90;;
4555;SDS011;2290;48.674;9.018;2024-01-27T15:33:22;8.90;;;2.53;;
4555;SDS011;2290;48.674;9.018;2024-01-27T15:35:49;5.60;;;2.57;;
4555;SDS011;2290;48.674;9.018;2024-01-27T15:38:14;11.60;;;2.90;;
4555;SDS011;2290;48.674;9.018;2024-01-27T15:40:41;5.20;;;2.83;;
4555;SDS011;2290;48.674;9.018;2024-01-27T15:43:07;7.63;;;2.60;;
4555;SDS011;2290;48.674;9.018;2024-01-27T15:45:34;5.70;;;2.47;;
4555;SDS011;2290;48.674;9.018;2024-01-27T15:47:59;2.90;;;2.60;;
4555;SDS011;2290;48.674;9.018;2024-01-27T15:50:25;4.80;;;2.17;;
4555;SDS011;2290;48.674;9.018;2024-01-27T15:52:53;4.13;;;2.60;;
4555;SDS011;2290;48.674;9.018;2024-01-27T15:55:20;5.27;;;2.40;;
4555;SDS011;2290;48.674;9.018;2024-01-27T15:57:47;3.80;;;2.70;;
4555;SDS011;2290;48.674;9.018;2024-01-27T16:00:13;5.17;;;3.40;;
4555;SDS011;2290;48.674;9.018;2024-01-27T16:02:41;6.30;;;3.47;;
4555;SDS011;2290;48.674;9.018;2024-01-27T16:05:08;4.47;;;3.07;;
4555;SDS011;2290;48.674;9.018;2024-01-27T16:07:33;7.30;;;2.83;;
4555;SDS011;2290;48.674;9.018;2024-01-27T16:10:00;5.77;;;2.80;;
4555;SDS011;2290;48.674;9.018;2024-01-27T16:12:30;5.70;;;2.57;;
4555;SDS011;2290;48.674;9.018;2024-01-27T16:14:58;3.67;;;2.30;;
4555;SDS011;2290;48.674;9.018;2024-01-27T16:17:24;4.23;;;2.20;;
4555;SDS011;2290;48.674;9.018;2024-01-27T16:19:52;6.90;;;2.90;;
4555;SDS011;2290;48.674;9.018;2024-01-27T16:22:18;4.40;;;2.73;;
4555;SDS011;2290;48.674;9.018;2024-01-27T16:24:48;3.97;;;2.53;;